createdAt,value
2023-04-27T00:02:10.069Z,9.62
2023-04-27T00:04:37.831Z,9.63
2023-04-27T00:07:04.994Z,9.65
2023-04-27T00:09:32.113Z,9.65
2023-04-27T00:11:59.080Z,9.64
2023-04-27T00:14:28.761Z,9.63
2023-04-27T00:16:56.286Z,9.61
2023-04-27T00:19:23.601Z,9.61
2023-04-27T00:21:50.788Z,9.57
2023-04-27T00:24:17.886Z,9.54
2023-04-27T00:26:45.202Z,9.53
2023-04-27T00:29:12.485Z,9.51
2023-04-27T00:31:39.782Z,9.33
2023-04-27T00:34:06.817Z,9.45
2023-04-27T00:36:35.116Z,9.44
2023-04-27T00:39:04.155Z,9.44
2023-04-27T00:41:32.863Z,9.43
2023-04-27T00:43:59.817Z,9.38
2023-04-27T00:46:28.127Z,9.37
2023-04-27T00:48:56.281Z,9.36
2023-04-27T00:51:27.882Z,9.35
2023-04-27T00:53:57.732Z,9.32
2023-04-27T00:56:24.892Z,9.27
2023-04-27T00:58:51.912Z,9.29
2023-04-27T01:01:20.810Z,9.23
2023-04-27T01:03:48.398Z,9.26
2023-04-27T01:06:15.481Z,9.30
2023-04-27T01:08:44.218Z,9.34
2023-04-27T01:11:11.369Z,9.38
2023-04-27T01:13:39.704Z,9.43
2023-04-27T01:16:06.738Z,9.44
2023-04-27T01:18:33.889Z,9.47
2023-04-27T01:21:01.406Z,9.50
2023-04-27T01:23:28.506Z,9.50
2023-04-27T01:25:55.981Z,9.51
2023-04-27T01:28:23.020Z,9.48
2023-04-27T01:30:50.235Z,9.42
2023-04-27T01:33:17.997Z,9.45
2023-04-27T01:35:48.348Z,9.39
2023-04-27T01:38:15.517Z,9.42
2023-04-27T01:40:44.181Z,9.38
2023-04-27T01:43:11.403Z,9.38
2023-04-27T01:46:01.706Z,9.37
2023-04-27T01:48:38.887Z,9.36
2023-04-27T01:51:06.635Z,9.33
2023-04-27T01:53:33.871Z,9.32
2023-04-27T01:56:01.173Z,9.32
2023-04-27T01:58:28.314Z,9.30
2023-04-27T02:00:55.525Z,9.30
2023-04-27T02:03:22.560Z,9.28
2023-04-27T02:05:50.982Z,9.23
2023-04-27T02:08:19.331Z,9.21
2023-04-27T02:10:46.477Z,9.12
2023-04-27T02:13:13.792Z,9.19
2023-04-27T02:15:41.109Z,9.21
2023-04-27T02:18:08.292Z,9.20
2023-04-27T02:20:35.717Z,9.21
2023-04-27T02:23:02.756Z,9.17
2023-04-27T02:25:29.923Z,9.17
2023-04-27T02:27:56.935Z,9.19
2023-04-27T02:30:24.501Z,9.16
2023-04-27T02:32:52.220Z,9.19
2023-04-27T02:35:19.295Z,9.22
2023-04-27T02:37:46.330Z,9.23
2023-04-27T02:40:15.453Z,9.26
2023-04-27T02:42:42.433Z,9.28
2023-04-27T02:45:11.707Z,9.32
2023-04-27T02:47:38.702Z,9.32
2023-04-27T02:50:07.658Z,9.32
2023-04-27T02:52:35.533Z,9.39
2023-04-27T02:55:02.494Z,9.43
2023-04-27T02:57:32.769Z,9.47
2023-04-27T02:59:59.806Z,9.54
2023-04-27T03:02:27.206Z,9.60
2023-04-27T03:04:55.387Z,9.67
2023-04-27T03:07:23.042Z,9.77
2023-04-27T03:09:49.975Z,9.87
2023-04-27T03:12:17.248Z,9.96
2023-04-27T03:14:44.198Z,10.07
2023-04-27T03:17:11.772Z,10.14
2023-04-27T03:19:40.336Z,10.22
2023-04-27T03:22:07.396Z,10.23
2023-04-27T03:24:35.744Z,10.22
2023-04-27T03:27:02.846Z,10.20
2023-04-27T03:29:29.814Z,10.21
2023-04-27T03:31:57.588Z,10.21
2023-04-27T03:34:24.721Z,10.24
2023-04-27T03:36:51.716Z,10.25
2023-04-27T03:39:18.653Z,10.29
2023-04-27T03:41:45.668Z,10.34
2023-04-27T03:44:13.118Z,10.42
2023-04-27T03:46:40.189Z,10.49
2023-04-27T03:49:07.503Z,10.57
2023-04-27T03:51:35.130Z,10.65
2023-04-27T03:54:02.186Z,10.71
2023-04-27T03:56:29.429Z,10.77
2023-04-27T03:58:56.695Z,10.84
2023-04-27T04:01:32.043Z,10.92
2023-04-27T04:03:59.158Z,11.00
2023-04-27T04:06:26.263Z,11.08
2023-04-27T04:08:53.221Z,11.11
2023-04-27T04:11:20.453Z,11.20
2023-04-27T04:13:47.612Z,11.32
2023-04-27T04:16:15.065Z,11.47
2023-04-27T04:18:42.206Z,11.57
2023-04-27T04:21:13.575Z,11.71
2023-04-27T04:23:43.515Z,11.84
2023-04-27T04:26:10.562Z,11.92
2023-04-27T04:28:38.399Z,12.05
2023-04-27T04:31:06.046Z,12.13
2023-04-27T04:33:33.573Z,12.27
2023-04-27T04:36:04.245Z,12.37
2023-04-27T04:38:33.107Z,12.58
2023-04-27T04:41:01.267Z,12.88
2023-04-27T04:43:31.460Z,14.28
2023-04-27T04:45:58.680Z,15.77
2023-04-27T04:48:25.870Z,16.77
2023-04-27T04:50:53.045Z,17.60
2023-04-27T04:53:20.304Z,18.61
2023-04-27T04:55:47.451Z,19.27
2023-04-27T04:58:14.516Z,20.08
2023-04-27T05:00:42.494Z,20.75
2023-04-27T05:03:09.683Z,20.77
2023-04-27T05:05:36.746Z,21.89
2023-04-27T05:08:03.832Z,22.55
2023-04-27T05:10:30.847Z,22.99
2023-04-27T05:12:58.005Z,23.73
2023-04-27T05:15:24.891Z,23.44
2023-04-27T05:17:54.370Z,24.38
2023-04-27T05:20:21.628Z,24.74
2023-04-27T05:22:48.982Z,24.91
2023-04-27T05:25:16.161Z,25.64
2023-04-27T05:27:43.207Z,25.17
2023-04-27T05:30:11.320Z,24.63
2023-04-27T05:32:38.726Z,25.97
2023-04-27T05:35:05.959Z,26.43
2023-04-27T05:37:33.026Z,26.56
2023-04-27T05:40:00.177Z,25.69
2023-04-27T05:42:27.269Z,26.44
2023-04-27T05:44:54.723Z,26.58
2023-04-27T05:47:24.458Z,26.99
2023-04-27T05:49:55.326Z,27.50
2023-04-27T05:52:22.772Z,27.87
2023-04-27T05:54:50.346Z,27.31
2023-04-27T05:57:17.473Z,28.23
2023-04-27T05:59:44.579Z,28.19
2023-04-27T06:02:12.005Z,29.09
2023-04-27T06:04:39.146Z,28.41
2023-04-27T06:07:10.413Z,28.20
2023-04-27T06:09:38.060Z,28.48
2023-04-27T06:12:05.928Z,28.33
2023-04-27T06:14:34.220Z,29.10
2023-04-27T06:17:01.591Z,29.50
2023-04-27T06:19:28.728Z,30.15
2023-04-27T06:21:55.946Z,29.58
2023-04-27T06:24:23.240Z,30.18
2023-04-27T06:26:50.623Z,29.17
2023-04-27T06:29:20.516Z,29.57
2023-04-27T06:31:47.490Z,29.70
2023-04-27T06:34:14.459Z,29.78
2023-04-27T06:36:42.198Z,29.73
2023-04-27T06:39:09.268Z,30.95
2023-04-27T06:41:36.257Z,30.62
2023-04-27T06:44:03.329Z,31.04
2023-04-27T06:46:30.530Z,31.63
2023-04-27T06:48:57.444Z,30.36
2023-04-27T06:51:24.338Z,31.12
2023-04-27T06:53:51.550Z,30.58
2023-04-27T06:56:18.533Z,29.98
2023-04-27T06:58:45.855Z,30.57
2023-04-27T07:01:12.937Z,30.74
2023-04-27T07:03:40.140Z,31.42
2023-04-27T07:06:07.546Z,32.15
2023-04-27T07:08:34.556Z,32.53
2023-04-27T07:11:01.780Z,31.84
2023-04-27T07:13:30.090Z,30.73
2023-04-27T07:16:01.220Z,30.15
2023-04-27T07:18:28.409Z,31.77
2023-04-27T07:20:58.076Z,33.01
2023-04-27T07:23:25.812Z,32.69
2023-04-27T07:25:52.841Z,30.81
2023-04-27T07:28:19.932Z,30.62
2023-04-27T07:30:47.210Z,31.87
2023-04-27T07:33:14.561Z,33.07
2023-04-27T07:35:42.110Z,33.48
2023-04-27T07:38:09.172Z,34.02
2023-04-27T07:40:36.962Z,34.59
2023-04-27T07:43:04.289Z,33.09
2023-04-27T07:45:34.648Z,32.49
2023-04-27T07:48:02.219Z,32.54
2023-04-27T07:50:30.107Z,33.24
2023-04-27T07:52:57.747Z,33.38
2023-04-27T07:55:25.887Z,34.06
2023-04-27T07:57:53.993Z,35.00
2023-04-27T08:00:22.433Z,33.41
2023-04-27T08:02:50.877Z,33.67
2023-04-27T08:05:18.354Z,34.80
2023-04-27T08:07:46.113Z,34.26
2023-04-27T08:10:15.307Z,35.27
2023-04-27T08:12:42.483Z,35.57
2023-04-27T08:15:10.374Z,35.72
2023-04-27T08:17:39.206Z,36.82
2023-04-27T08:20:07.983Z,34.81
2023-04-27T08:22:35.016Z,33.74
2023-04-27T08:25:04.221Z,34.92
2023-04-27T08:27:31.700Z,34.64
2023-04-27T08:29:58.990Z,33.81
2023-04-27T08:32:25.953Z,33.26
2023-04-27T08:34:53.003Z,33.50
2023-04-27T08:37:19.984Z,33.94
2023-04-27T08:39:48.491Z,33.51
2023-04-27T08:42:16.269Z,32.77
2023-04-27T08:44:44.642Z,33.70
2023-04-27T08:47:12.340Z,33.40
2023-04-27T08:49:41.534Z,31.62
2023-04-27T08:52:15.594Z,32.03
2023-04-27T08:54:43.647Z,32.83
2023-04-27T08:57:11.937Z,33.76
2023-04-27T08:59:44.794Z,34.48
2023-04-27T09:02:21.831Z,34.23
2023-04-27T09:04:49.034Z,35.89
2023-04-27T09:07:18.296Z,35.68
2023-04-27T09:09:46.078Z,35.91
2023-04-27T09:12:21.239Z,35.85
2023-04-27T09:15:03.869Z,35.41
2023-04-27T09:17:34.229Z,36.80
2023-04-27T09:20:09.303Z,34.85
2023-04-27T09:22:47.393Z,36.03
2023-04-27T09:25:32.178Z,34.47
2023-04-27T09:28:00.747Z,35.21
2023-04-27T09:30:29.031Z,35.44
2023-04-27T09:32:58.460Z,35.86
2023-04-27T09:35:28.115Z,35.50
2023-04-27T09:37:56.381Z,37.17
2023-04-27T09:40:30.691Z,37.83
2023-04-27T09:42:59.609Z,37.18
2023-04-27T09:45:26.791Z,35.98
2023-04-27T09:47:54.127Z,36.66
2023-04-27T09:50:22.173Z,35.79
2023-04-27T09:52:49.335Z,34.80
2023-04-27T09:55:24.582Z,35.46
2023-04-27T09:58:15.892Z,36.07
2023-04-27T10:00:48.857Z,36.95
2023-04-27T10:03:28.079Z,36.31
2023-04-27T10:06:28.759Z,34.65
2023-04-27T10:08:57.349Z,34.79
2023-04-27T10:11:39.271Z,33.76
2023-04-27T10:14:08.665Z,35.01
2023-04-27T10:16:55.550Z,36.96
2023-04-27T10:19:24.529Z,36.29
2023-04-27T10:22:03.933Z,33.82
2023-04-27T10:24:36.377Z,31.61
2023-04-27T10:27:05.917Z,28.81
2023-04-27T10:29:42.156Z,28.61
2023-04-27T10:32:21.265Z,28.12
2023-04-27T10:34:49.305Z,27.74
2023-04-27T10:37:16.849Z,27.40
2023-04-27T10:39:49.073Z,26.64
2023-04-27T10:42:29.880Z,26.14
2023-04-27T10:44:58.222Z,26.10
2023-04-27T10:47:42.815Z,27.40
2023-04-27T10:50:14.536Z,28.43
2023-04-27T10:52:46.292Z,29.75
2023-04-27T10:55:15.148Z,28.92
2023-04-27T10:57:52.910Z,27.87
2023-04-27T11:00:49.287Z,27.11
2023-04-27T11:03:19.833Z,26.80
2023-04-27T11:05:48.287Z,26.24
2023-04-27T11:08:21.030Z,25.46
2023-04-27T11:10:50.384Z,24.83
2023-04-27T11:13:22.428Z,24.43
2023-04-27T11:15:52.094Z,23.72
2023-04-27T11:18:20.946Z,23.49
2023-04-27T11:21:07.277Z,22.86
2023-04-27T11:23:38.296Z,22.84
2023-04-27T11:26:17.325Z,22.52
2023-04-27T11:28:57.039Z,22.09
2023-04-27T11:31:24.112Z,22.15
2023-04-27T11:33:52.379Z,22.72
2023-04-27T11:36:21.300Z,23.07
2023-04-27T11:38:48.592Z,23.44
2023-04-27T11:41:16.235Z,23.39
2023-04-27T11:43:47.345Z,24.09
2023-04-27T11:46:14.601Z,24.60
2023-04-27T11:48:41.730Z,24.13
2023-04-27T11:51:10.946Z,23.09
2023-04-27T11:53:42.732Z,22.96
2023-04-27T11:56:11.256Z,22.95
2023-04-27T11:58:39.540Z,22.99
2023-04-27T12:01:07.780Z,23.01
2023-04-27T12:03:35.585Z,22.73
2023-04-27T12:08:32.630Z,23.38
2023-04-27T12:10:59.855Z,23.66
2023-04-27T12:13:27.346Z,23.55
2023-04-27T12:15:54.351Z,23.29
2023-04-27T12:18:21.312Z,22.85
2023-04-27T12:20:48.311Z,22.76
2023-04-27T12:23:15.521Z,23.03
2023-04-27T12:25:44.199Z,23.07
2023-04-27T12:28:12.291Z,22.72
2023-04-27T12:30:41.687Z,22.61
2023-04-27T12:33:11.331Z,22.54
2023-04-27T12:35:38.375Z,22.25
2023-04-27T12:38:05.421Z,22.18
2023-04-27T12:40:33.470Z,22.17
2023-04-27T12:43:01.266Z,22.27
2023-04-27T12:45:28.873Z,21.99
2023-04-27T12:48:03.427Z,22.11
2023-04-27T12:50:32.324Z,22.01
2023-04-27T12:53:00.264Z,22.01
2023-04-27T12:55:33.886Z,21.81
2023-04-27T12:58:02.171Z,22.04
2023-04-27T13:00:29.965Z,22.29
2023-04-27T13:02:57.558Z,22.08
2023-04-27T13:05:24.730Z,22.07
2023-04-27T13:07:51.953Z,22.04
2023-04-27T13:10:18.910Z,22.08
2023-04-27T13:12:46.628Z,21.81
2023-04-27T13:15:13.609Z,21.89
2023-04-27T13:17:42.999Z,21.74
2023-04-27T13:20:11.500Z,21.67
2023-04-27T13:22:40.898Z,21.73
2023-04-27T13:25:09.552Z,21.46
2023-04-27T13:27:36.908Z,21.65
2023-04-27T13:30:05.455Z,21.69
2023-04-27T13:32:32.960Z,21.54
2023-04-27T13:35:00.043Z,21.77
2023-04-27T13:37:27.589Z,21.67
2023-04-27T13:39:54.603Z,21.48
2023-04-27T13:42:24.141Z,21.36
2023-04-27T13:44:51.234Z,21.28
2023-04-27T13:47:18.232Z,21.10
2023-04-27T13:49:45.615Z,21.07
2023-04-27T13:52:12.872Z,21.15
2023-04-27T13:54:40.052Z,21.04
2023-04-27T13:57:06.950Z,20.99
2023-04-27T13:59:33.969Z,20.75
2023-04-27T14:02:00.953Z,20.74
2023-04-27T14:04:28.079Z,20.69
2023-04-27T14:06:55.071Z,20.62
2023-04-27T14:09:24.321Z,20.53
2023-04-27T14:11:57.059Z,20.54
2023-04-27T14:14:24.963Z,20.72
2023-04-27T14:16:53.555Z,20.45
2023-04-27T14:19:21.143Z,20.45
2023-04-27T14:21:52.356Z,20.30
2023-04-27T14:24:19.858Z,20.36
2023-04-27T14:26:47.727Z,20.36
2023-04-27T14:29:15.636Z,20.37
2023-04-27T14:31:43.406Z,20.50
2023-04-27T14:34:11.063Z,20.48
2023-04-27T14:36:38.244Z,20.54
2023-04-27T14:39:06.804Z,20.47
2023-04-27T14:41:33.967Z,20.32
2023-04-27T14:44:01.441Z,20.27
2023-04-27T14:46:28.818Z,20.22
2023-04-27T14:48:56.369Z,20.14
2023-04-27T14:51:23.380Z,20.17
2023-04-27T14:53:50.312Z,20.21
2023-04-27T14:56:17.468Z,20.16
2023-04-27T14:58:44.455Z,20.14
2023-04-27T15:01:11.425Z,20.16
2023-04-27T15:03:38.651Z,20.23
2023-04-27T15:06:06.934Z,20.29
2023-04-27T15:08:34.549Z,20.29
2023-04-27T15:11:03.870Z,20.18
2023-04-27T15:13:31.434Z,20.15
2023-04-27T15:16:01.119Z,20.08
2023-04-27T15:18:28.373Z,20.05
2023-04-27T15:20:56.593Z,20.03
2023-04-27T15:23:24.913Z,19.93
2023-04-27T15:25:56.229Z,19.85
2023-04-27T15:28:23.370Z,19.75
2023-04-27T15:30:50.935Z,19.76
2023-04-27T15:33:18.204Z,19.70
2023-04-27T15:35:45.190Z,19.69
2023-04-27T15:38:13.686Z,19.60
2023-04-27T15:40:40.675Z,19.62
2023-04-27T15:43:07.650Z,19.45
2023-04-27T15:45:34.747Z,19.47
2023-04-27T15:48:02.154Z,19.42
2023-04-27T15:50:29.423Z,19.30
2023-04-27T15:52:56.420Z,19.30
2023-04-27T15:55:23.441Z,19.26
2023-04-27T15:57:50.728Z,19.23
2023-04-27T16:00:19.154Z,19.17
2023-04-27T16:02:46.800Z,19.07
2023-04-27T16:05:14.596Z,19.09
2023-04-27T16:07:43.464Z,19.05
2023-04-27T16:10:11.689Z,18.94
2023-04-27T16:12:39.319Z,18.91
2023-04-27T16:15:10.086Z,18.83
2023-04-27T16:17:38.404Z,18.73
2023-04-27T16:20:09.842Z,18.68
2023-04-27T16:22:38.080Z,18.59
2023-04-27T16:25:13.337Z,18.55
2023-04-27T16:27:40.747Z,18.46
2023-04-27T16:30:08.189Z,18.41
2023-04-27T16:32:35.706Z,18.33
2023-04-27T16:35:03.262Z,18.25
2023-04-27T16:37:32.740Z,18.19
2023-04-27T16:40:01.971Z,18.15
2023-04-27T16:42:31.196Z,18.05
2023-04-27T16:44:59.914Z,17.96
2023-04-27T16:47:27.335Z,17.89
2023-04-27T16:49:54.605Z,17.82
2023-04-27T16:52:21.879Z,17.65
2023-04-27T16:54:48.950Z,17.65
2023-04-27T16:57:16.463Z,17.55
2023-04-27T16:59:43.686Z,17.47
2023-04-27T17:02:23.749Z,17.40
2023-04-27T17:04:52.026Z,17.31
2023-04-27T17:07:19.219Z,17.24
2023-04-27T17:09:46.180Z,17.18
2023-04-27T17:12:14.845Z,17.11
2023-04-27T17:14:42.736Z,17.06
2023-04-27T17:17:10.406Z,17.00
2023-04-27T17:19:37.452Z,16.85
2023-04-27T17:22:04.628Z,16.88
2023-04-27T17:24:31.887Z,16.85
2023-04-27T17:26:58.911Z,16.79
2023-04-27T17:29:25.883Z,16.75
2023-04-27T17:31:53.429Z,16.72
2023-04-27T17:34:21.089Z,16.66
2023-04-27T17:36:48.138Z,16.61
2023-04-27T17:39:15.515Z,16.59
2023-04-27T17:41:42.973Z,16.53
2023-04-27T17:44:12.632Z,16.48
2023-04-27T17:46:46.991Z,16.42
2023-04-27T17:49:15.262Z,16.39
2023-04-27T17:51:43.851Z,16.34
2023-04-27T17:54:11.911Z,16.32
2023-04-27T17:56:39.687Z,16.28
2023-04-27T17:59:08.644Z,16.25
2023-04-27T18:01:36.113Z,16.22
2023-04-27T18:04:05.810Z,16.20
2023-04-27T18:06:33.453Z,16.19
2023-04-27T18:09:00.484Z,16.16
2023-04-27T18:11:27.555Z,16.14
2023-04-27T18:13:55.369Z,16.12
2023-04-27T18:16:22.426Z,16.10
2023-04-27T18:18:49.621Z,16.09
2023-04-27T18:21:16.745Z,16.06
2023-04-27T18:23:44.810Z,16.05
2023-04-27T18:26:12.211Z,16.02
2023-04-27T18:28:40.282Z,15.98
2023-04-27T18:31:17.526Z,15.93
2023-04-27T18:33:47.832Z,15.91
2023-04-27T18:36:14.932Z,15.88
2023-04-27T18:38:42.024Z,15.86
2023-04-27T18:41:09.113Z,15.84
2023-04-27T18:43:38.878Z,15.81
2023-04-27T18:46:06.153Z,15.80
2023-04-27T18:48:33.371Z,15.71
2023-04-27T18:51:00.566Z,15.73
2023-04-27T18:53:28.318Z,15.73
2023-04-27T18:55:55.815Z,15.70
2023-04-27T18:58:23.060Z,15.69
2023-04-27T19:00:50.341Z,15.60
2023-04-27T19:03:17.969Z,15.64
2023-04-27T19:05:45.611Z,15.63
2023-04-27T19:08:12.821Z,15.62
2023-04-27T19:10:42.438Z,15.61
2023-04-27T19:13:09.528Z,15.59
2023-04-27T19:15:36.553Z,15.56
2023-04-27T19:18:11.247Z,15.53
2023-04-27T19:20:39.942Z,15.49
2023-04-27T19:23:09.669Z,15.47
2023-04-27T19:25:37.276Z,15.48
2023-04-27T19:28:04.947Z,15.46
2023-04-27T19:30:32.076Z,15.44
2023-04-27T19:32:59.610Z,15.40
2023-04-27T19:35:27.607Z,15.37
2023-04-27T19:37:54.829Z,15.36
2023-04-27T19:40:22.147Z,15.32
2023-04-27T19:42:49.925Z,15.30
2023-04-27T19:45:18.158Z,15.29
2023-04-27T19:47:45.356Z,15.27
2023-04-27T19:50:12.591Z,15.28
2023-04-27T19:52:39.854Z,15.27
2023-04-27T19:55:07.593Z,15.24
2023-04-27T19:57:35.032Z,15.24
2023-04-27T20:00:03.776Z,15.24
2023-04-27T20:02:40.985Z,15.22
2023-04-27T20:05:09.039Z,15.17
2023-04-27T20:07:37.457Z,15.18
2023-04-27T20:10:05.692Z,15.17
2023-04-27T20:12:51.602Z,15.16
2023-04-27T20:15:20.703Z,15.13
2023-04-27T20:17:47.959Z,15.14
2023-04-27T20:20:14.949Z,15.18
2023-04-27T20:22:42.242Z,15.19
2023-04-27T20:25:09.483Z,15.16
2023-04-27T20:27:36.741Z,15.13
2023-04-27T20:30:04.412Z,15.12
2023-04-27T20:32:32.022Z,15.12
2023-04-27T20:35:00.839Z,15.10
2023-04-27T20:37:32.480Z,15.11
2023-04-27T20:40:01.004Z,15.13
2023-04-27T20:42:31.076Z,15.12
2023-04-27T20:44:58.132Z,15.07
2023-04-27T20:47:25.177Z,15.08
2023-04-27T20:49:53.474Z,15.05
2023-04-27T20:52:20.889Z,15.02
2023-04-27T20:54:47.804Z,15.02
2023-04-27T20:57:14.968Z,14.99
2023-04-27T20:59:42.218Z,14.93
2023-04-27T21:02:09.445Z,14.96
2023-04-27T21:04:36.696Z,14.95
2023-04-27T21:07:03.830Z,14.92
2023-04-27T21:09:31.444Z,14.93
2023-04-27T21:11:58.450Z,14.86
2023-04-27T21:14:25.504Z,14.84
2023-04-27T21:16:52.485Z,14.84
2023-04-27T21:19:19.508Z,14.80
2023-04-27T21:21:46.561Z,14.77
2023-04-27T21:24:13.600Z,14.74
2023-04-27T21:26:42.481Z,14.71
2023-04-27T21:29:11.984Z,14.69
2023-04-27T21:31:42.091Z,14.65
2023-04-27T21:34:09.042Z,14.61
2023-04-27T21:36:37.642Z,14.54
2023-04-27T21:39:05.932Z,14.49
2023-04-27T21:41:34.860Z,14.51
2023-04-27T21:44:02.421Z,14.39
2023-04-27T21:46:30.083Z,14.38
2023-04-27T21:48:57.800Z,14.30
2023-04-27T21:51:24.789Z,14.26
2023-04-27T21:53:51.915Z,14.35
2023-04-27T21:56:19.007Z,14.31
2023-04-27T21:58:46.212Z,14.34
2023-04-27T22:01:13.280Z,14.35
2023-04-27T22:03:40.922Z,14.37
2023-04-27T22:06:09.152Z,14.33
2023-04-27T22:08:36.227Z,14.30
2023-04-27T22:11:03.221Z,14.30
2023-04-27T22:13:30.100Z,14.32
2023-04-27T22:15:57.273Z,14.29
2023-04-27T22:18:24.431Z,14.27
2023-04-27T22:20:51.753Z,14.25
2023-04-27T22:23:18.725Z,14.22
2023-04-27T22:25:46.185Z,14.17
2023-04-27T22:28:13.372Z,14.13
2023-04-27T22:30:42.060Z,14.08
2023-04-27T22:33:09.824Z,14.03
2023-04-27T22:35:37.542Z,14.02
2023-04-27T22:38:04.887Z,13.98
2023-04-27T22:40:32.018Z,13.95
2023-04-27T22:42:58.945Z,13.92
2023-04-27T22:45:25.925Z,13.87
2023-04-27T22:47:53.003Z,13.84
2023-04-27T22:50:20.059Z,13.82
2023-04-27T22:52:46.970Z,13.78
2023-04-27T22:55:13.950Z,13.71
2023-04-27T22:57:42.470Z,13.66
2023-04-27T23:00:11.634Z,13.62
2023-04-27T23:02:41.072Z,13.59
2023-04-27T23:05:08.948Z,13.53
2023-04-27T23:07:36.392Z,13.49
2023-04-27T23:10:03.854Z,13.48
2023-04-27T23:12:33.670Z,13.42
2023-04-27T23:15:01.110Z,13.37
2023-04-27T23:17:30.903Z,13.35
2023-04-27T23:20:00.187Z,13.31
2023-04-27T23:22:27.783Z,13.30
2023-04-27T23:24:54.721Z,13.27
2023-04-27T23:27:22.693Z,13.24
2023-04-27T23:29:49.665Z,13.23
2023-04-27T23:32:17.296Z,13.19
2023-04-27T23:34:44.389Z,13.15
2023-04-27T23:37:11.386Z,13.14
2023-04-27T23:39:38.472Z,13.12
2023-04-27T23:42:05.545Z,13.05
2023-04-27T23:44:32.645Z,13.06
2023-04-27T23:46:59.651Z,13.06
2023-04-27T23:49:26.640Z,13.04
2023-04-27T23:51:53.722Z,13.02
2023-04-27T23:54:20.683Z,12.96
2023-04-27T23:56:47.646Z,12.97
2023-04-27T23:59:15.169Z,12.95
